sensor_id;sensor_type;location;lat;lon;timestamp;pressure;altitude;pressure_sealevel;temperature;humidity
15007;BME280;7599;50.748;13.142;2023-06-24T07:50:05;96456.81;;;22.78;53.77
15007;BME280;7599;50.748;13.142;2023-06-24T07:53:17;96454.84;;;22.75;53.45
15007;BME280;7599;50.748;13.142;2023-06-24T07:56:20;96432.72;;;22.50;53.38
15007;BME280;7599;50.748;13.142;2023-06-24T07:59:23;96415.41;;;22.39;53.99
15007;BME280;7599;50.748;13.142;2023-06-24T08:02:26;96429.13;;;22.42;54.11
15007;BME280;7599;50.748;13.142;2023-06-24T08:05:30;96407.50;;;22.30;53.79
15007;BME280;7599;50.748;13.142;2023-06-24T08:08:59;96445.19;;;22.44;53.49
15007;BME280;7599;50.748;13.142;2023-06-24T08:12:40;96444.50;;;22.57;53.50
15007;BME280;7599;50.748;13.142;2023-06-24T08:15:46;96447.28;;;22.61;53.36
15007;BME280;7599;50.748;13.142;2023-06-24T08:18:56;96463.06;;;22.75;54.14
15007;BME280;7599;50.748;13.142;2023-06-24T08:22:00;96454.44;;;22.73;53.84
15007;BME280;7599;50.748;13.142;2023-06-24T08:25:04;96439.88;;;22.65;53.96
15007;BME280;7599;50.748;13.142;2023-06-24T08:28:07;96452.44;;;22.70;53.76
15007;BME280;7599;50.748;13.142;2023-06-24T08:31:10;96434.69;;;22.53;53.85
15007;BME280;7599;50.748;13.142;2023-06-24T08:34:13;96452.81;;;22.65;53.84
15007;BME280;7599;50.748;13.142;2023-06-24T08:37:17;96477.50;;;22.68;52.56
15007;BME280;7599;50.748;13.142;2023-06-24T08:40:19;96473.97;;;22.71;53.14
15007;BME280;7599;50.748;13.142;2023-06-24T08:43:22;96470.47;;;22.71;53.47
15007;BME280;7599;50.748;13.142;2023-06-24T08:46:25;96476.25;;;22.62;52.99
15007;BME280;7599;50.748;13.142;2023-06-24T08:49:30;96481.81;;;22.69;53.41
15007;BME280;7599;50.748;13.142;2023-06-24T08:52:36;96480.25;;;22.72;53.71
15007;BME280;7599;50.748;13.142;2023-06-24T08:55:42;96477.56;;;22.79;53.28
15007;BME280;7599;50.748;13.142;2023-06-24T08:58:45;96489.75;;;22.85;53.17
15007;BME280;7599;50.748;13.142;2023-06-24T09:01:49;96482.00;;;22.91;52.53
15007;BME280;7599;50.748;13.142;2023-06-24T09:04:52;96478.88;;;22.92;52.71
15007;BME280;7599;50.748;13.142;2023-06-24T09:07:56;96487.53;;;22.98;52.63
15007;BME280;7599;50.748;13.142;2023-06-24T09:10:59;96485.16;;;22.93;52.61
15007;BME280;7599;50.748;13.142;2023-06-24T09:14:01;96482.34;;;22.89;52.82
15007;BME280;7599;50.748;13.142;2023-06-24T09:17:04;96487.38;;;22.80;53.03
15007;BME280;7599;50.748;13.142;2023-06-24T09:20:07;96486.97;;;22.78;52.94
15007;BME280;7599;50.748;13.142;2023-06-24T09:23:13;96495.63;;;22.83;52.78
15007;BME280;7599;50.748;13.142;2023-06-24T09:26:16;96494.06;;;22.82;52.83
15007;BME280;7599;50.748;13.142;2023-06-24T09:29:19;96480.28;;;22.75;52.74
15007;BME280;7599;50.748;13.142;2023-06-24T09:32:30;96490.50;;;22.78;53.12
15007;BME280;7599;50.748;13.142;2023-06-24T09:35:35;96476.75;;;22.75;53.13
15007;BME280;7599;50.748;13.142;2023-06-24T09:38:41;96497.56;;;22.83;52.93
15007;BME280;7599;50.748;13.142;2023-06-24T09:41:50;96480.28;;;22.75;52.51
15007;BME280;7599;50.748;13.142;2023-06-24T09:44:54;96473.19;;;22.71;52.73
15007;BME280;7599;50.748;13.142;2023-06-24T09:47:57;96467.31;;;22.69;52.65
15007;BME280;7599;50.748;13.142;2023-06-24T09:51:03;96477.19;;;22.80;53.19
15007;BME280;7599;50.748;13.142;2023-06-24T09:54:08;96473.22;;;22.74;52.45
15007;BME280;7599;50.748;13.142;2023-06-24T09:57:11;96466.53;;;22.68;52.74
15007;BME280;7599;50.748;13.142;2023-06-24T10:00:17;96483.03;;;22.75;52.63
15007;BME280;7599;50.748;13.142;2023-06-24T10:03:20;96471.63;;;22.70;52.81
15007;BME280;7599;50.748;13.142;2023-06-24T10:06:24;96471.63;;;22.70;52.71
15007;BME280;7599;50.748;13.142;2023-06-24T10:09:28;96479.50;;;22.75;52.86
15007;BME280;7599;50.748;13.142;2023-06-24T10:12:31;96427.66;;;22.52;52.57
15007;BME280;7599;50.748;13.142;2023-06-24T10:15:35;96455.16;;;22.66;52.84
15007;BME280;7599;50.748;13.142;2023-06-24T10:18:39;96465.72;;;22.64;52.42
15007;BME280;7599;50.748;13.142;2023-06-24T10:21:47;96462.59;;;22.66;52.68
15007;BME280;7599;50.748;13.142;2023-06-24T10:24:53;96482.19;;;22.71;52.71
15007;BME280;7599;50.748;13.142;2023-06-24T10:27:58;96475.97;;;22.74;52.30
15007;BME280;7599;50.748;13.142;2023-06-24T10:31:00;96459.81;;;22.62;52.61
15007;BME280;7599;50.748;13.142;2023-06-24T10:34:20;96466.50;;;22.65;52.47
15007;BME280;7599;50.748;13.142;2023-06-24T10:37:24;96463.34;;;22.63;52.59
15007;BME280;7599;50.748;13.142;2023-06-24T10:40:38;96464.13;;;22.63;52.51
15007;BME280;7599;50.748;13.142;2023-06-24T10:43:41;96481.03;;;22.72;52.31
15007;BME280;7599;50.748;13.142;2023-06-24T10:46:53;96475.09;;;22.63;52.51
15007;BME280;7599;50.748;13.142;2023-06-24T10:49:58;96480.63;;;22.70;52.43
15007;BME280;7599;50.748;13.142;2023-06-24T10:53:07;96466.13;;;22.66;52.37
15007;BME280;7599;50.748;13.142;2023-06-24T10:56:12;96479.84;;;22.70;52.61
15007;BME280;7599;50.748;13.142;2023-06-24T10:59:14;96467.66;;;22.64;52.05
15007;BME280;7599;50.748;13.142;2023-06-24T11:02:19;96473.56;;;22.66;52.54
15007;BME280;7599;50.748;13.142;2023-06-24T11:05:22;96458.22;;;22.57;52.23
15007;BME280;7599;50.748;13.142;2023-06-24T11:08:25;96474.34;;;22.66;52.42
15007;BME280;7599;50.748;13.142;2023-06-24T11:11:29;96461.78;;;22.62;52.15
15007;BME280;7599;50.748;13.142;2023-06-24T11:14:32;96457.50;;;22.64;52.16
15007;BME280;7599;50.748;13.142;2023-06-24T11:17:37;96465.38;;;22.69;52.27
15007;BME280;7599;50.748;13.142;2023-06-24T11:20:40;96437.09;;;22.58;52.45
15007;BME280;7599;50.748;13.142;2023-06-24T11:23:43;96459.88;;;22.69;52.56
15007;BME280;7599;50.748;13.142;2023-06-24T11:26:47;96455.53;;;22.65;52.55
15007;BME280;7599;50.748;13.142;2023-06-24T11:29:51;96462.16;;;22.64;52.52
15007;BME280;7599;50.748;13.142;2023-06-24T11:32:55;96453.16;;;22.63;52.68
15007;BME280;7599;50.748;13.142;2023-06-24T11:35:58;96449.69;;;22.66;52.42
15007;BME280;7599;50.748;13.142;2023-06-24T11:39:01;96438.69;;;22.63;52.46
15007;BME280;7599;50.748;13.142;2023-06-24T11:42:07;96447.31;;;22.65;52.29
15007;BME280;7599;50.748;13.142;2023-06-24T11:45:12;96448.16;;;22.72;52.30
15007;BME280;7599;50.748;13.142;2023-06-24T11:48:19;96446.19;;;22.69;52.48
15007;BME280;7599;50.748;13.142;2023-06-24T11:51:23;96439.13;;;22.68;52.18
15007;BME280;7599;50.748;13.142;2023-06-24T11:54:26;96429.69;;;22.62;52.56
15007;BME280;7599;50.748;13.142;2023-06-24T11:57:50;96446.56;;;22.71;52.27
15007;BME280;7599;50.748;13.142;2023-06-24T12:00:52;96438.31;;;22.68;52.64
15007;BME280;7599;50.748;13.142;2023-06-24T12:03:55;96439.13;;;22.72;52.73
15007;BME280;7599;50.748;13.142;2023-06-24T12:06:58;96437.53;;;22.67;52.93
15007;BME280;7599;50.748;13.142;2023-06-24T12:10:01;96433.97;;;22.63;52.51
15007;BME280;7599;50.748;13.142;2023-06-24T12:13:05;96422.66;;;22.65;52.46
15007;BME280;7599;50.748;13.142;2023-06-24T12:16:09;96417.97;;;22.65;52.65
15007;BME280;7599;50.748;13.142;2023-06-24T12:19:12;96432.09;;;22.71;52.97
15007;BME280;7599;50.748;13.142;2023-06-24T12:22:14;96425.03;;;22.70;52.80
15007;BME280;7599;50.748;13.142;2023-06-24T12:25:17;96431.34;;;22.74;52.56
15007;BME280;7599;50.748;13.142;2023-06-24T12:28:22;96410.59;;;22.76;52.91
15007;BME280;7599;50.748;13.142;2023-06-24T12:31:24;96419.59;;;22.73;53.04
15007;BME280;7599;50.748;13.142;2023-06-24T12:34:27;96410.25;;;22.81;52.60
15007;BME280;7599;50.748;13.142;2023-06-24T12:37:30;96418.97;;;22.91;52.45
15007;BME280;7599;50.748;13.142;2023-06-24T12:40:34;96429.97;;;23.01;52.31
15007;BME280;7599;50.748;13.142;2023-06-24T12:43:38;96409.97;;;22.97;52.58
15007;BME280;7599;50.748;13.142;2023-06-24T12:46:40;96422.16;;;23.07;52.67
15007;BME280;7599;50.748;13.142;2023-06-24T12:49:43;96422.19;;;23.11;52.84
15007;BME280;7599;50.748;13.142;2023-06-24T12:52:46;96415.91;;;23.06;53.04
15007;BME280;7599;50.748;13.142;2023-06-24T12:55:49;96400.59;;;22.98;53.34
15007;BME280;7599;50.748;13.142;2023-06-24T12:58:54;96406.91;;;23.06;53.36
15007;BME280;7599;50.748;13.142;2023-06-24T13:01:56;96415.97;;;23.14;53.27
15007;BME280;7599;50.748;13.142;2023-06-24T13:04:59;96412.00;;;23.04;52.73
15007;BME280;7599;50.748;13.142;2023-06-24T13:08:02;96422.63;;;23.13;53.24
15007;BME280;7599;50.748;13.142;2023-06-24T13:11:07;96415.19;;;23.13;53.21
15007;BME280;7599;50.748;13.142;2023-06-24T13:14:12;96423.41;;;23.13;52.92
15007;BME280;7599;50.748;13.142;2023-06-24T13:17:15;96420.25;;;23.15;52.69
15007;BME280;7599;50.748;13.142;2023-06-24T13:20:17;96398.28;;;23.04;52.93
15007;BME280;7599;50.748;13.142;2023-06-24T13:23:20;96406.91;;;23.06;53.04
15007;BME280;7599;50.748;13.142;2023-06-24T13:26:23;96414.78;;;23.15;53.24
15007;BME280;7599;50.748;13.142;2023-06-24T13:29:27;96409.34;;;23.22;52.93
15007;BME280;7599;50.748;13.142;2023-06-24T13:32:35;96407.78;;;23.28;53.15
15007;BME280;7599;50.748;13.142;2023-06-24T13:35:47;96409.03;;;23.34;53.60
15007;BME280;7599;50.748;13.142;2023-06-24T13:38:50;96414.53;;;23.41;53.36
15007;BME280;7599;50.748;13.142;2023-06-24T13:41:53;96423.53;;;23.42;53.02
15007;BME280;7599;50.748;13.142;2023-06-24T13:44:57;96423.53;;;23.38;53.48
15007;BME280;7599;50.748;13.142;2023-06-24T13:47:59;96405.81;;;23.21;53.39
15007;BME280;7599;50.748;13.142;2023-06-24T13:51:02;96416.47;;;23.33;53.16
15007;BME280;7599;50.748;13.142;2023-06-24T13:54:05;96403.09;;;23.25;53.41
15007;BME280;7599;50.748;13.142;2023-06-24T13:57:07;96399.97;;;23.30;53.25
15007;BME280;7599;50.748;13.142;2023-06-24T14:00:13;96401.94;;;23.29;53.52
15007;BME280;7599;50.748;13.142;2023-06-24T14:03:16;96392.47;;;23.20;53.42
15007;BME280;7599;50.748;13.142;2023-06-24T14:06:20;96408.97;;;23.27;53.13
15007;BME280;7599;50.748;13.142;2023-06-24T14:09:23;96393.25;;;23.20;53.22
15007;BME280;7599;50.748;13.142;2023-06-24T14:12:25;96392.50;;;23.23;53.20
15007;BME280;7599;50.748;13.142;2023-06-24T14:15:30;96396.44;;;23.26;53.32
15007;BME280;7599;50.748;13.142;2023-06-24T14:18:32;96394.09;;;23.28;53.40
15007;BME280;7599;50.748;13.142;2023-06-24T14:21:36;96396.91;;;23.42;53.34
15007;BME280;7599;50.748;13.142;2023-06-24T14:24:39;96389.47;;;23.43;53.77
15007;BME280;7599;50.748;13.142;2023-06-24T14:27:41;96389.06;;;23.44;53.38
15007;BME280;7599;50.748;13.142;2023-06-24T14:30:45;96402.03;;;23.47;53.41
15007;BME280;7599;50.748;13.142;2023-06-24T14:33:48;96408.31;;;23.51;53.18
15007;BME280;7599;50.748;13.142;2023-06-24T14:36:57;96387.53;;;23.47;52.13
15007;BME280;7599;50.748;13.142;2023-06-24T14:40:25;96391.44;;;23.49;51.34
15007;BME280;7599;50.748;13.142;2023-06-24T14:47:09;96381.63;;;23.48;51.98
15007;BME280;7599;50.748;13.142;2023-06-24T14:50:13;96388.69;;;23.49;51.90
15007;BME280;7599;50.748;13.142;2023-06-24T14:53:15;96389.88;;;23.48;51.65
15007;BME280;7599;50.748;13.142;2023-06-24T14:56:18;96380.06;;;23.47;51.50
15007;BME280;7599;50.748;13.142;2023-06-24T14:59:20;96376.91;;;23.45;51.34
15007;BME280;7599;50.748;13.142;2023-06-24T15:02:24;96378.09;;;23.44;51.03
15007;BME280;7599;50.748;13.142;2023-06-24T15:05:27;96376.09;;;23.41;50.67
15007;BME280;7599;50.748;13.142;2023-06-24T15:08:30;96375.31;;;23.41;51.55
15007;BME280;7599;50.748;13.142;2023-06-24T15:11:32;96365.13;;;23.41;51.05
15007;BME280;7599;50.748;13.142;2023-06-24T15:14:35;96371.41;;;23.42;51.01
15007;BME280;7599;50.748;13.142;2023-06-24T15:17:41;96372.59;;;23.41;51.17
15007;BME280;7599;50.748;13.142;2023-06-24T15:20:46;96356.88;;;23.38;50.63
15007;BME280;7599;50.748;13.142;2023-06-24T15:23:48;96364.34;;;23.41;50.57
15007;BME280;7599;50.748;13.142;2023-06-24T15:26:51;96370.25;;;23.39;50.57
15007;BME280;7599;50.748;13.142;2023-06-24T15:29:53;96365.53;;;23.40;50.71
15007;BME280;7599;50.748;13.142;2023-06-24T15:32:57;96356.50;;;23.36;50.51
15007;BME280;7599;50.748;13.142;2023-06-24T15:36:00;96349.84;;;23.40;50.58
15007;BME280;7599;50.748;13.142;2023-06-24T15:39:03;96349.47;;;23.42;50.62
15007;BME280;7599;50.748;13.142;2023-06-24T15:42:06;96344.34;;;23.37;50.57
15007;BME280;7599;50.748;13.142;2023-06-24T15:45:09;96354.56;;;23.40;50.17
15007;BME280;7599;50.748;13.142;2023-06-24T15:48:13;96350.25;;;23.39;50.40
15007;BME280;7599;50.748;13.142;2023-06-24T15:51:16;96345.56;;;23.39;50.22
15007;BME280;7599;50.748;13.142;2023-06-24T15:54:21;96340.84;;;23.40;49.83
15007;BME280;7599;50.748;13.142;2023-06-24T15:57:23;96349.47;;;23.38;49.90
15007;BME280;7599;50.748;13.142;2023-06-24T16:00:26;96340.84;;;23.40;50.25
15007;BME280;7599;50.748;13.142;2023-06-24T16:03:30;96346.72;;;23.38;49.68
15007;BME280;7599;50.748;13.142;2023-06-24T16:06:33;96338.09;;;23.40;49.86
15007;BME280;7599;50.748;13.142;2023-06-24T16:09:36;96336.13;;;23.37;50.06
15007;BME280;7599;50.748;13.142;2023-06-24T16:12:39;96337.69;;;23.38;50.13
15007;BME280;7599;50.748;13.142;2023-06-24T16:15:41;96338.50;;;23.38;50.09
15007;BME280;7599;50.748;13.142;2023-06-24T16:18:45;96331.84;;;23.39;50.22
15007;BME280;7599;50.748;13.142;2023-06-24T16:21:47;96337.69;;;23.41;50.96
15007;BME280;7599;50.748;13.142;2023-06-24T16:24:50;96333.41;;;23.40;50.84
15007;BME280;7599;50.748;13.142;2023-06-24T16:28:08;96336.91;;;23.41;50.96
15007;BME280;7599;50.748;13.142;2023-06-24T16:31:10;96334.19;;;23.41;51.09
15007;BME280;7599;50.748;13.142;2023-06-24T16:34:14;96327.94;;;23.44;51.17
15007;BME280;7599;50.748;13.142;2023-06-24T16:37:24;96331.06;;;23.42;51.22
15007;BME280;7599;50.748;13.142;2023-06-24T16:40:27;96331.06;;;23.42;51.21
15007;BME280;7599;50.748;13.142;2023-06-24T16:43:31;96327.16;;;23.43;51.10
15007;BME280;7599;50.748;13.142;2023-06-24T16:46:33;96325.97;;;23.44;50.81
15007;BME280;7599;50.748;13.142;2023-06-24T16:49:37;96320.84;;;23.46;51.16
15007;BME280;7599;50.748;13.142;2023-06-24T16:52:39;96319.69;;;23.44;50.92
15007;BME280;7599;50.748;13.142;2023-06-24T16:55:42;96318.94;;;23.47;50.68
15007;BME280;7599;50.748;13.142;2023-06-24T16:58:44;96320.84;;;23.46;51.20
15007;BME280;7599;50.748;13.142;2023-06-24T17:01:47;96325.56;;;23.46;51.12
15007;BME280;7599;50.748;13.142;2023-06-24T17:04:53;96325.97;;;23.48;50.83
15007;BME280;7599;50.748;13.142;2023-06-24T17:07:55;96329.09;;;23.46;51.07
15007;BME280;7599;50.748;13.142;2023-06-24T17:10:58;96331.47;;;23.48;51.01
15007;BME280;7599;50.748;13.142;2023-06-24T17:14:00;96334.22;;;23.48;51.06
15007;BME280;7599;50.748;13.142;2023-06-24T17:17:03;96333.44;;;23.47;51.20
15007;BME280;7599;50.748;13.142;2023-06-24T17:20:08;96331.06;;;23.49;50.89
15007;BME280;7599;50.748;13.142;2023-06-24T17:23:11;96327.53;;;23.45;51.11
15007;BME280;7599;50.748;13.142;2023-06-24T17:26:13;96333.03;;;23.49;50.90
15007;BME280;7599;50.748;13.142;2023-06-24T17:29:16;96320.09;;;23.49;51.05
15007;BME280;7599;50.748;13.142;2023-06-24T17:32:18;96329.09;;;23.50;51.33
15007;BME280;7599;50.748;13.142;2023-06-24T17:35:22;96324.41;;;23.47;50.97
15007;BME280;7599;50.748;13.142;2023-06-24T17:38:25;96329.09;;;23.50;51.10
15007;BME280;7599;50.748;13.142;2023-06-24T17:41:28;96323.22;;;23.48;51.30
15007;BME280;7599;50.748;13.142;2023-06-24T17:44:31;96325.97;;;23.48;51.46
15007;BME280;7599;50.748;13.142;2023-06-24T17:47:33;96327.94;;;23.47;51.25
15007;BME280;7599;50.748;13.142;2023-06-24T17:50:37;96331.84;;;23.50;50.90
15007;BME280;7599;50.748;13.142;2023-06-24T17:53:40;96329.88;;;23.50;51.40
15007;BME280;7599;50.748;13.142;2023-06-24T17:56:43;96319.28;;;23.45;51.79
15007;BME280;7599;50.748;13.142;2023-06-24T17:59:45;96316.16;;;23.40;51.19
15007;BME280;7599;50.748;13.142;2023-06-24T18:02:58;96334.56;;;23.46;51.13
15007;BME280;7599;50.748;13.142;2023-06-24T18:06:03;96316.56;;;23.38;51.56
15007;BME280;7599;50.748;13.142;2023-06-24T18:09:06;96312.63;;;23.36;50.97
15007;BME280;7599;50.748;13.142;2023-06-24T18:12:09;96323.22;;;23.48;51.14
15007;BME280;7599;50.748;13.142;2023-06-24T18:15:11;96323.22;;;23.44;51.27
15007;BME280;7599;50.748;13.142;2023-06-24T18:18:14;96314.19;;;23.40;51.41
15007;BME280;7599;50.748;13.142;2023-06-24T18:21:18;96324.78;;;23.45;51.51
15007;BME280;7599;50.748;13.142;2023-06-24T18:24:26;96303.63;;;23.39;51.51
15007;BME280;7599;50.748;13.142;2023-06-24T18:27:28;96312.66;;;23.43;51.40
15007;BME280;7599;50.748;13.142;2023-06-24T18:30:33;96314.22;;;23.44;51.54
15007;BME280;7599;50.748;13.142;2023-06-24T18:33:37;96312.63;;;23.39;51.54
15007;BME280;7599;50.748;13.142;2023-06-24T18:36:40;96309.47;;;23.41;51.59
15007;BME280;7599;50.748;13.142;2023-06-24T18:39:46;96313.44;;;23.43;51.66
15007;BME280;7599;50.748;13.142;2023-06-24T18:42:49;96299.28;;;23.41;51.44
15007;BME280;7599;50.748;13.142;2023-06-24T18:45:51;96308.31;;;23.42;51.59
15007;BME280;7599;50.748;13.142;2023-06-24T18:48:54;96315.00;;;23.48;51.50
15007;BME280;7599;50.748;13.142;2023-06-24T18:51:58;96315.38;;;23.50;51.81
15007;BME280;7599;50.748;13.142;2023-06-24T18:55:01;96314.59;;;23.49;52.08
15007;BME280;7599;50.748;13.142;2023-06-24T18:58:04;96304.78;;;23.41;51.66
15007;BME280;7599;50.748;13.142;2023-06-24T19:01:06;96303.63;;;23.42;51.61
15007;BME280;7599;50.748;13.142;2023-06-24T19:04:09;96312.25;;;23.44;51.84
15007;BME280;7599;50.748;13.142;2023-06-24T19:07:13;96309.91;;;23.43;51.83
15007;BME280;7599;50.748;13.142;2023-06-24T19:10:16;96329.09;;;23.50;51.94
15007;BME280;7599;50.748;13.142;2023-06-24T19:13:19;96323.22;;;23.48;51.61
15007;BME280;7599;50.748;13.142;2023-06-24T19:16:21;96310.28;;;23.41;51.57
15007;BME280;7599;50.748;13.142;2023-06-24T19:19:24;96311.88;;;23.42;52.01
15007;BME280;7599;50.748;13.142;2023-06-24T19:22:30;96310.28;;;23.45;51.93
15007;BME280;7599;50.748;13.142;2023-06-24T19:25:32;96323.25;;;23.51;51.75
15007;BME280;7599;50.748;13.142;2023-06-24T19:28:37;96316.56;;;23.49;51.69
15007;BME280;7599;50.748;13.142;2023-06-24T19:31:39;96312.25;;;23.48;51.82
15007;BME280;7599;50.748;13.142;2023-06-24T19:34:58;96308.31;;;23.45;51.82
15007;BME280;7599;50.748;13.142;2023-06-24T19:38:14;96306.38;;;23.42;51.59
15007;BME280;7599;50.748;13.142;2023-06-24T19:41:17;96320.88;;;23.53;51.78
15007;BME280;7599;50.748;13.142;2023-06-24T19:44:20;96308.72;;;23.47;52.09
15007;BME280;7599;50.748;13.142;2023-06-24T19:47:23;96320.88;;;23.53;51.92
15007;BME280;7599;50.748;13.142;2023-06-24T19:50:33;96329.91;;;23.54;51.71
15007;BME280;7599;50.748;13.142;2023-06-24T19:54:05;96316.19;;;23.54;51.80
15007;BME280;7599;50.748;13.142;2023-06-24T19:57:08;96321.66;;;23.54;51.78
15007;BME280;7599;50.748;13.142;2023-06-24T20:00:11;96307.16;;;23.53;52.24
15007;BME280;7599;50.748;13.142;2023-06-24T20:03:19;96309.13;;;23.49;51.96
15007;BME280;7599;50.748;13.142;2023-06-24T20:06:22;96320.50;;;23.55;52.08
15007;BME280;7599;50.748;13.142;2023-06-24T20:09:26;96309.91;;;23.50;51.89
15007;BME280;7599;50.748;13.142;2023-06-24T20:12:29;96317.34;;;23.49;52.29
15007;BME280;7599;50.748;13.142;2023-06-24T20:15:32;96304.78;;;23.45;52.08
15007;BME280;7599;50.748;13.142;2023-06-24T20:18:35;96313.44;;;23.50;52.09
15007;BME280;7599;50.748;13.142;2023-06-24T20:21:37;96300.88;;;23.42;52.18
15007;BME280;7599;50.748;13.142;2023-06-24T20:24:41;96309.53;;;23.51;52.30
15007;BME280;7599;50.748;13.142;2023-06-24T20:27:44;96313.81;;;23.49;52.69
15007;BME280;7599;50.748;13.142;2023-06-24T20:30:46;96308.34;;;23.49;52.27
15007;BME280;7599;50.748;13.142;2023-06-24T20:33:49;96302.47;;;23.47;52.52
15007;BME280;7599;50.748;13.142;2023-06-24T20:36:52;96292.25;;;23.44;52.51
15007;BME280;7599;50.748;13.142;2023-06-24T20:39:57;96288.72;;;23.43;51.96
15007;BME280;7599;50.748;13.142;2023-06-24T20:43:00;96306.00;;;23.47;52.12
15007;BME280;7599;50.748;13.142;2023-06-24T20:46:02;96291.06;;;23.41;52.10
15007;BME280;7599;50.748;13.142;2023-06-24T20:49:05;96286.75;;;23.37;52.31
15007;BME280;7599;50.748;13.142;2023-06-24T20:52:08;96281.25;;;23.37;52.00
15007;BME280;7599;50.748;13.142;2023-06-24T20:55:12;96297.34;;;23.45;51.86
15007;BME280;7599;50.748;13.142;2023-06-24T20:58:14;96284.41;;;23.35;52.21
15007;BME280;7599;50.748;13.142;2023-06-24T21:01:17;96284.78;;;23.37;52.44
15007;BME280;7599;50.748;13.142;2023-06-24T21:04:20;96295.38;;;23.39;52.04
15007;BME280;7599;50.748;13.142;2023-06-24T21:07:23;96290.69;;;23.39;52.15
15007;BME280;7599;50.748;13.142;2023-06-24T21:10:27;96276.94;;;23.36;52.21
15007;BME280;7599;50.748;13.142;2023-06-24T21:13:30;96295.41;;;23.42;52.05
15007;BME280;7599;50.748;13.142;2023-06-24T21:16:35;96286.75;;;23.37;52.54
15007;BME280;7599;50.748;13.142;2023-06-24T21:19:37;96273.00;;;23.33;52.53
15007;BME280;7599;50.748;13.142;2023-06-24T21:22:40;96282.06;;;23.33;52.61
15007;BME280;7599;50.748;13.142;2023-06-24T21:25:44;96277.72;;;23.32;52.28
15007;BME280;7599;50.748;13.142;2023-06-24T21:28:47;96280.06;;;23.30;52.23
15007;BME280;7599;50.748;13.142;2023-06-24T21:31:50;96289.91;;;23.39;52.20
15007;BME280;7599;50.748;13.142;2023-06-24T21:34:52;96293.44;;;23.39;52.43
15007;BME280;7599;50.748;13.142;2023-06-24T21:37:55;96263.22;;;23.21;52.11
15007;BME280;7599;50.748;13.142;2023-06-24T21:41:00;96292.25;;;23.40;52.17
15007;BME280;7599;50.748;13.142;2023-06-24T21:44:04;96287.94;;;23.36;51.97
15007;BME280;7599;50.748;13.142;2023-06-24T21:47:07;96293.78;;;23.38;52.04
15007;BME280;7599;50.748;13.142;2023-06-24T21:50:10;96259.66;;;23.17;52.25
15007;BME280;7599;50.748;13.142;2023-06-24T21:53:12;96278.50;;;23.26;52.38
15007;BME280;7599;50.748;13.142;2023-06-24T21:56:16;96298.91;;;23.36;52.23
15007;BME280;7599;50.748;13.142;2023-06-24T21:59:19;96296.16;;;23.36;52.25
15007;BME280;7599;50.748;13.142;2023-06-24T22:02:23;96298.50;;;23.30;51.55
15007;BME280;7599;50.748;13.142;2023-06-24T22:05:26;96271.41;;;23.18;52.34
15007;BME280;7599;50.748;13.142;2023-06-24T22:08:36;96293.03;;;23.33;52.06
15007;BME280;7599;50.748;13.142;2023-06-24T22:11:40;96300.06;;;23.31;52.36
15007;BME280;7599;50.748;13.142;2023-06-24T22:14:43;96279.66;;;23.21;52.22
15007;BME280;7599;50.748;13.142;2023-06-24T22:17:46;96288.28;;;23.27;51.98
15007;BME280;7599;50.748;13.142;2023-06-24T22:20:48;96280.03;;;23.20;52.50
15007;BME280;7599;50.748;13.142;2023-06-24T22:23:51;96285.16;;;23.25;51.85
15007;BME280;7599;50.748;13.142;2023-06-24T22:26:55;96277.28;;;23.20;51.92
15007;BME280;7599;50.748;13.142;2023-06-24T22:29:57;96282.41;;;23.21;52.15
15007;BME280;7599;50.748;13.142;2023-06-24T22:33:00;96269.47;;;23.18;52.02
15007;BME280;7599;50.748;13.142;2023-06-24T22:36:03;96289.84;;;23.21;52.02
15007;BME280;7599;50.748;13.142;2023-06-24T22:39:07;96286.31;;;23.20;52.16
15007;BME280;7599;50.748;13.142;2023-06-24T22:42:15;96295.31;;;23.24;51.94
15007;BME280;7599;50.748;13.142;2023-06-24T22:45:38;96289.44;;;23.19;52.32
15007;BME280;7599;50.748;13.142;2023-06-24T22:48:54;96301.22;;;23.23;52.24
15007;BME280;7599;50.748;13.142;2023-06-24T22:52:03;96303.16;;;23.22;51.88
15007;BME280;7599;50.748;13.142;2023-06-24T22:55:07;96299.22;;;23.20;52.15
15007;BME280;7599;50.748;13.142;2023-06-24T22:58:55;96304.72;;;23.23;52.37
15007;BME280;7599;50.748;13.142;2023-06-24T23:02:07;96294.16;;;23.22;52.09
15007;BME280;7599;50.748;13.142;2023-06-24T23:05:15;96286.31;;;23.17;52.24
15007;BME280;7599;50.748;13.142;2023-06-24T23:08:26;96293.75;;;23.16;52.07
15007;BME280;7599;50.748;13.142;2023-06-24T23:11:30;96290.63;;;23.18;52.00
15007;BME280;7599;50.748;13.142;2023-06-24T23:14:34;96289.44;;;23.19;51.89
15007;BME280;7599;50.748;13.142;2023-06-24T23:17:37;96279.25;;;23.12;52.23
15007;BME280;7599;50.748;13.142;2023-06-24T23:20:40;96279.25;;;23.12;51.99
15007;BME280;7599;50.748;13.142;2023-06-24T23:23:44;96282.78;;;23.16;52.43
15007;BME280;7599;50.748;13.142;2023-06-24T23:26:48;96281.97;;;23.16;52.31
15007;BME280;7599;50.748;13.142;2023-06-24T23:29:54;96244.69;;;22.93;52.38
15007;BME280;7599;50.748;13.142;2023-06-24T23:32:58;96287.47;;;23.16;52.03
15007;BME280;7599;50.748;13.142;2023-06-24T23:36:02;96300.03;;;23.17;51.81
15007;BME280;7599;50.748;13.142;2023-06-24T23:39:06;96282.38;;;23.14;51.79
15007;BME280;7599;50.748;13.142;2023-06-24T23:42:11;96272.53;;;23.06;51.97
15007;BME280;7599;50.748;13.142;2023-06-24T23:45:20;96278.06;;;23.13;52.36
15007;BME280;7599;50.748;13.142;2023-06-24T23:48:23;96272.94;;;23.12;52.08
15007;BME280;7599;50.748;13.142;2023-06-24T23:51:26;96261.97;;;23.04;51.80
15007;BME280;7599;50.748;13.142;2023-06-24T23:54:29;96262.75;;;23.05;51.86
15007;BME280;7599;50.748;13.142;2023-06-24T23:57:36;96274.13;;;23.11;52.29
